Dati Storici

Data ora Umidita' aria (%) Temperatura aria (°C) Rad globale (W/m²) Gonioanemometro (°) Tacoanemometro (m/s) Pioggia (mm)
09-11-2012 03:30 91.4 % 6.766 1.712 66.175 0.432 0
09-11-2012 03:20 91.4 % 6.991 1.891 63.128 0.471 0
09-11-2012 03:10 90.6 % 6.947 1.84 34.17 1.099 0
09-11-2012 03:00 90.1 % 7.059 1.391 200.93 -0.002 0
09-11-2012 02:50 90.6 % 7.483 1.737 200.834 -0.001 0
09-11-2012 02:40 91.3 % 7.831 2.256 33.386 0.727 0
09-11-2012 02:30 90.8 % 7.638 2.089 297.577 0.113 0
09-11-2012 02:20 90.3 % 7.541 2.012 290.282 0.289 0
09-11-2012 02:10 89.5 % 7.475 1.936 299.786 0.022 0
09-11-2012 02:00 89.2 % 7.521 2.307 25.204 0.208 0
09-11-2012 01:50 88.8 % 7.718 1.516 208.245 0.163 0
09-11-2012 01:40 87 % 7.622 1.144 218.361 0.322 0
09-11-2012 01:30 86 % 7.773 1.144 115.692 -0.007 0
09-11-2012 01:20 86.4 % 8.343 1.734 116.194 0.045 0
09-11-2012 01:10 85.4 % 8.456 1.772 122.03 0.016 0
09-11-2012 01:00 85.5 % 8.812 1.785 220.473 -0.005 0
09-11-2012 00:50 85.5 % 9.029 2.17 307.388 0.186 0
09-11-2012 00:40 86.2 % 9.126 2.657 285.516 0.416 0
09-11-2012 00:30 87.2 % 8.944 2.35 278.927 0.368 0
09-11-2012 00:20 87.9 % 8.754 2.555 262.618 -0.005 0

I dati sono presentati in modo automatico a scopo informativo. In seguito a verifica i dati possono subire modifiche o essere invalidati e non riportati negli archivi definitivi.